createdAt,value
2023-01-12T00:02:07.470Z,96958.28
2023-01-12T00:04:36.029Z,96970.00
2023-01-12T00:07:07.485Z,96963.69
2023-01-12T00:09:35.371Z,96962.97
2023-01-12T00:12:06.367Z,96959.69
2023-01-12T00:14:34.530Z,96969.22
2023-01-12T00:17:02.467Z,96977.09
2023-01-12T00:19:30.454Z,96971.16
2023-01-12T00:22:02.244Z,96970.91
2023-01-12T00:24:31.555Z,96971.69
2023-01-12T00:27:01.111Z,96984.78
2023-01-12T00:29:30.437Z,96986.50
2023-01-12T00:32:00.739Z,96983.63
2023-01-12T00:34:29.875Z,96990.47
2023-01-12T00:36:58.606Z,96977.47
2023-01-12T00:39:26.447Z,96971.97
2023-01-12T00:42:12.005Z,96971.91
2023-01-12T00:44:59.233Z,96975.97
2023-01-12T00:47:27.360Z,96970.66
2023-01-12T00:49:55.225Z,96967.09
2023-01-12T00:52:30.847Z,96961.06
2023-01-12T00:55:00.224Z,96966.19
2023-01-12T00:57:28.772Z,96961.59
2023-01-12T01:00:00.013Z,96965.75
2023-01-12T01:02:29.224Z,96957.06
2023-01-12T01:04:57.557Z,96947.34
2023-01-12T01:07:25.993Z,96946.31
2023-01-12T01:09:54.513Z,96951.47
2023-01-12T01:12:22.542Z,96953.94
2023-01-12T01:14:50.633Z,96948.69
2023-01-12T01:17:19.806Z,96938.09
2023-01-12T01:19:48.959Z,96945.97
2023-01-12T01:22:16.745Z,96939.81
2023-01-12T01:24:44.637Z,96951.22
2023-01-12T01:27:12.664Z,96939.91
2023-01-12T01:29:40.712Z,96944.97
2023-01-12T01:32:08.871Z,96957.22
2023-01-12T01:34:38.149Z,96955.44
2023-01-12T01:37:05.968Z,96953.69
2023-01-12T01:39:33.820Z,96958.00
2023-01-12T01:42:02.097Z,96967.53
2023-01-12T01:44:53.622Z,96956.22
2023-01-12T01:47:31.287Z,96963.94
2023-01-12T01:50:03.535Z,96967.47
2023-01-12T01:52:35.098Z,96983.13
2023-01-12T01:55:06.597Z,96976.03
2023-01-12T01:57:41.663Z,96979.56
2023-01-12T02:00:13.018Z,96978.56
2023-01-12T02:02:43.010Z,96971.63
2023-01-12T02:05:13.533Z,96975.09
2023-01-12T02:07:42.118Z,96978.47
2023-01-12T02:10:11.003Z,96970.63
2023-01-12T02:12:56.652Z,96974.06
2023-01-12T02:15:45.639Z,96959.34
2023-01-12T02:18:22.629Z,96957.50
2023-01-12T02:21:05.593Z,96955.81
2023-01-12T02:24:10.610Z,96946.94
2023-01-12T02:27:30.009Z,96953.88
2023-01-12T02:30:36.805Z,96936.34
2023-01-12T02:33:19.779Z,96927.56
2023-01-12T02:35:56.422Z,96919.69
2023-01-12T02:38:32.234Z,96914.59
2023-01-12T02:41:10.557Z,96912.84
2023-01-12T02:43:40.148Z,96907.50
2023-01-12T02:46:14.360Z,96896.25
2023-01-12T02:48:48.211Z,96901.50
2023-01-12T02:51:23.524Z,96898.03
2023-01-12T02:53:53.716Z,96890.25
2023-01-12T02:56:51.625Z,96901.84
2023-01-12T02:59:23.958Z,96893.88
2023-01-12T03:01:54.643Z,96893.03
2023-01-12T03:04:24.596Z,96885.09
2023-01-12T03:07:23.995Z,96887.66
2023-01-12T03:09:57.420Z,96877.88
2023-01-12T03:12:30.096Z,96896.88
2023-01-12T03:15:00.913Z,96895.16
2023-01-12T03:17:33.923Z,96899.38
2023-01-12T03:20:06.978Z,96885.25
2023-01-12T03:22:38.369Z,96879.25
2023-01-12T03:25:11.193Z,96884.34
2023-01-12T03:27:41.593Z,96888.75
2023-01-12T03:30:14.080Z,96883.50
2023-01-12T03:32:42.421Z,96875.53
2023-01-12T03:35:12.588Z,96876.34
2023-01-12T03:37:45.826Z,96877.97
2023-01-12T03:40:19.859Z,96872.63
2023-01-12T03:42:52.556Z,96879.59
2023-01-12T03:45:28.025Z,96883.97
2023-01-12T03:48:01.419Z,96880.25
2023-01-12T03:50:40.009Z,96876.72
2023-01-12T03:53:09.555Z,96874.16
2023-01-12T03:55:39.804Z,96874.09
2023-01-12T03:58:08.042Z,96873.22
2023-01-12T04:00:36.231Z,96880.06
2023-01-12T04:03:05.842Z,96880.06
2023-01-12T04:05:35.210Z,96876.53
2023-01-12T04:08:03.008Z,96870.34
2023-01-12T04:10:30.876Z,96875.50
2023-01-12T04:12:57.709Z,96886.75
2023-01-12T04:15:25.627Z,96888.53
2023-01-12T04:17:53.438Z,96868.41
2023-01-12T04:20:21.714Z,96865.00
2023-01-12T04:22:49.897Z,96861.44
2023-01-12T04:25:19.617Z,96860.59
2023-01-12T04:27:50.681Z,96860.59
2023-01-12T04:30:22.817Z,96856.94
2023-01-12T04:32:50.754Z,96859.75
2023-01-12T04:35:18.983Z,96849.44
2023-01-12T04:37:47.134Z,96851.22
2023-01-12T04:40:17.735Z,96839.03
2023-01-12T04:43:01.897Z,96841.47
2023-01-12T04:45:30.290Z,96849.44
2023-01-12T04:48:02.690Z,96846.56
2023-01-12T04:50:30.871Z,96835.22
2023-01-12T04:52:58.938Z,96828.28
2023-01-12T04:55:28.139Z,96832.78
2023-01-12T04:57:57.099Z,96831.81
2023-01-12T05:00:25.096Z,96829.13
2023-01-12T05:02:58.124Z,96819.56
2023-01-12T05:05:26.290Z,96832.00
2023-01-12T05:08:11.816Z,96832.69
2023-01-12T05:10:41.106Z,96822.19
2023-01-12T05:13:08.958Z,96825.59
2023-01-12T05:15:36.804Z,96832.50
2023-01-12T05:18:05.466Z,96834.03
2023-01-12T05:20:33.321Z,96832.31
2023-01-12T05:23:01.140Z,96818.28
2023-01-12T05:25:29.389Z,96819.97
2023-01-12T05:27:58.706Z,96814.53
2023-01-12T05:30:27.078Z,96811.91
2023-01-12T05:32:55.321Z,96810.22
2023-01-12T05:35:23.377Z,96799.72
2023-01-12T05:37:51.229Z,96799.53
2023-01-12T05:40:19.286Z,96802.16
2023-01-12T05:43:04.467Z,96803.03
2023-01-12T05:45:34.896Z,96805.72
2023-01-12T05:48:02.719Z,96797.88
2023-01-12T05:50:30.748Z,96807.59
2023-01-12T05:53:11.215Z,96811.19
2023-01-12T05:55:39.477Z,96809.28
2023-01-12T05:58:07.477Z,96799.81
2023-01-12T06:00:36.748Z,96789.22
2023-01-12T06:03:04.847Z,96803.31
2023-01-12T06:05:32.709Z,96797.28
2023-01-12T06:08:02.697Z,96793.06
2023-01-12T06:10:30.576Z,96787.06
2023-01-12T06:13:21.042Z,96788.75
2023-01-12T06:15:50.377Z,96780.03
2023-01-12T06:18:18.834Z,96774.88
2023-01-12T06:20:46.705Z,96758.22
2023-01-12T06:23:14.525Z,96755.66
2023-01-12T06:25:42.323Z,96757.38
2023-01-12T06:28:10.111Z,96759.25
2023-01-12T06:30:37.953Z,96753.88
2023-01-12T06:33:07.195Z,96755.59
2023-01-12T06:35:35.098Z,96743.50
2023-01-12T06:38:02.964Z,96736.53
2023-01-12T06:40:30.804Z,96716.59
2023-01-12T06:42:58.709Z,96731.31
2023-01-12T06:45:26.594Z,96719.78
2023-01-12T06:47:55.777Z,96728.50
2023-01-12T06:50:24.988Z,96732.81
2023-01-12T06:52:52.830Z,96740.59
2023-01-12T06:55:21.043Z,96739.56
2023-01-12T06:57:49.187Z,96737.72
2023-01-12T07:00:17.320Z,96734.13
2023-01-12T07:02:45.223Z,96735.81
2023-01-12T07:05:13.103Z,96733.88
2023-01-12T07:07:43.452Z,96744.16
2023-01-12T07:10:12.996Z,96740.69
2023-01-12T07:12:41.145Z,96745.88
2023-01-12T07:15:10.004Z,96728.34
2023-01-12T07:17:37.835Z,96732.56
2023-01-12T07:20:06.604Z,96738.66
2023-01-12T07:22:35.781Z,96736.97
2023-01-12T07:25:05.316Z,96730.69
2023-01-12T07:27:33.120Z,96727.97
2023-01-12T07:30:00.927Z,96728.81
2023-01-12T07:32:29.765Z,96727.13
2023-01-12T07:34:57.606Z,96725.16
2023-01-12T07:37:25.398Z,96726.88
2023-01-12T07:39:53.261Z,96725.00
2023-01-12T07:42:25.064Z,96724.91
2023-01-12T07:44:53.544Z,96733.63
2023-01-12T07:47:21.777Z,96743.22
2023-01-12T07:49:49.626Z,96737.97
2023-01-12T07:52:17.477Z,96737.75
2023-01-12T07:54:45.380Z,96735.13
2023-01-12T07:57:13.274Z,96734.19
2023-01-12T07:59:42.394Z,96727.16
2023-01-12T08:02:16.403Z,96716.56
2023-01-12T08:04:44.773Z,96724.44
2023-01-12T08:07:13.100Z,96734.88
2023-01-12T08:09:40.989Z,96731.19
2023-01-12T08:12:09.028Z,96734.66
2023-01-12T08:14:38.875Z,96735.50
2023-01-12T08:17:11.921Z,96731.97
2023-01-12T08:19:44.007Z,96739.84
2023-01-12T08:22:18.522Z,96740.59
2023-01-12T08:24:52.528Z,96742.19
2023-01-12T08:27:24.159Z,96746.56
2023-01-12T08:29:55.681Z,96741.31
2023-01-12T08:32:27.470Z,96755.09
2023-01-12T08:35:01.660Z,96753.31
2023-01-12T08:37:31.124Z,96758.56
2023-01-12T08:39:59.156Z,96765.53
2023-01-12T08:42:28.755Z,96765.41
2023-01-12T08:44:57.524Z,96757.47
2023-01-12T08:47:30.233Z,96761.75
2023-01-12T08:50:00.343Z,96754.75
2023-01-12T08:52:29.452Z,96752.00
2023-01-12T08:54:57.615Z,96751.16
2023-01-12T08:57:25.459Z,96759.72
2023-01-12T08:59:53.329Z,96751.66
2023-01-12T09:02:21.482Z,96755.31
2023-01-12T09:04:50.799Z,96746.47
2023-01-12T09:07:19.968Z,96753.97
2023-01-12T09:09:47.810Z,96749.56
2023-01-12T09:12:15.650Z,96756.41
2023-01-12T09:14:43.619Z,96758.84
2023-01-12T09:17:11.555Z,96764.84
2023-01-12T09:19:39.727Z,96762.88
2023-01-12T09:22:08.969Z,96770.69
2023-01-12T09:24:36.821Z,96776.66
2023-01-12T09:27:04.799Z,96781.84
2023-01-12T09:29:32.615Z,96793.19
2023-01-12T09:32:00.578Z,96785.22
2023-01-12T09:34:28.594Z,96781.63
2023-01-12T09:36:57.132Z,96772.00
2023-01-12T09:39:28.860Z,96778.09
2023-01-12T09:42:16.439Z,96780.50
2023-01-12T09:45:03.642Z,96787.47
2023-01-12T09:47:36.408Z,96798.69
2023-01-12T09:50:10.672Z,96789.91
2023-01-12T09:52:42.565Z,96769.72
2023-01-12T09:55:16.264Z,96762.59
2023-01-12T09:58:02.340Z,96756.28
2023-01-12T10:00:30.235Z,96745.56
2023-01-12T10:03:13.285Z,96741.81
2023-01-12T10:05:47.245Z,96731.97
2023-01-12T10:08:29.687Z,96738.81
2023-01-12T10:11:09.445Z,96720.19
2023-01-12T10:14:10.686Z,96713.91
2023-01-12T10:16:51.725Z,96717.28
2023-01-12T10:19:26.253Z,96705.72
2023-01-12T10:21:55.379Z,96693.31
2023-01-12T10:24:24.614Z,96695.75
2023-01-12T10:27:02.839Z,96693.84
2023-01-12T10:29:33.977Z,96694.59
2023-01-12T10:32:01.877Z,96703.25
2023-01-12T10:34:49.215Z,96707.38
2023-01-12T10:37:17.226Z,96715.13
2023-01-12T10:39:45.176Z,96715.03
2023-01-12T10:42:38.105Z,96715.88
2023-01-12T10:45:14.390Z,96715.78
2023-01-12T10:47:43.192Z,96721.06
2023-01-12T10:50:22.869Z,96709.56
2023-01-12T10:52:56.985Z,96715.66
2023-01-12T10:55:30.007Z,96705.91
2023-01-12T10:57:59.801Z,96709.28
2023-01-12T11:00:29.729Z,96700.47
2023-01-12T11:02:58.278Z,96694.25
2023-01-12T11:05:36.644Z,96695.06
2023-01-12T11:08:05.425Z,96696.78
2023-01-12T11:10:36.550Z,96702.88
2023-01-12T11:13:08.930Z,96701.81
2023-01-12T11:15:39.991Z,96684.38
2023-01-12T11:18:29.169Z,96691.31
2023-01-12T11:21:02.192Z,96687.84
2023-01-12T11:23:37.699Z,96686.88
2023-01-12T11:26:14.611Z,96689.63
2023-01-12T11:28:48.678Z,96683.50
2023-01-12T11:31:23.476Z,96694.03
2023-01-12T11:33:56.339Z,96697.53
2023-01-12T11:36:28.874Z,96693.09
2023-01-12T11:39:02.667Z,96699.28
2023-01-12T11:41:36.623Z,96690.56
2023-01-12T11:44:13.877Z,96684.47
2023-01-12T11:46:47.219Z,96693.19
2023-01-12T11:49:20.677Z,96685.31
2023-01-12T11:51:50.609Z,96676.56
2023-01-12T11:54:20.363Z,96661.63
2023-01-12T11:57:29.785Z,96671.22
2023-01-12T12:00:13.356Z,96668.59
2023-01-12T12:02:43.170Z,96670.25
2023-01-12T12:05:24.593Z,96667.63
2023-01-12T12:08:06.402Z,96661.41
2023-01-12T12:10:43.799Z,96649.13
2023-01-12T12:13:30.502Z,96645.63
2023-01-12T12:16:13.953Z,96636.81
2023-01-12T12:18:54.517Z,96649.00
2023-01-12T12:21:39.489Z,96641.84
2023-01-12T12:24:20.631Z,96649.66
2023-01-12T12:26:59.048Z,96646.91
2023-01-12T12:29:44.409Z,96652.16
2023-01-12T12:32:29.455Z,96640.72
2023-01-12T12:35:15.649Z,96639.56
2023-01-12T12:37:52.704Z,96633.44
2023-01-12T12:40:56.218Z,96634.94
2023-01-12T12:43:49.591Z,96633.88
2023-01-12T12:46:25.509Z,96638.94
2023-01-12T12:49:01.128Z,96637.91
2023-01-12T12:51:32.003Z,96637.78
2023-01-12T12:54:02.904Z,96635.88
2023-01-12T12:56:34.280Z,96630.72
2023-01-12T12:59:02.936Z,96629.69
2023-01-12T13:01:43.612Z,96626.09
2023-01-12T13:04:57.654Z,96623.38
2023-01-12T13:07:27.042Z,96615.34
2023-01-12T13:10:05.535Z,96624.22
2023-01-12T13:12:35.544Z,96618.72
2023-01-12T13:15:36.942Z,96626.28
2023-01-12T13:18:07.052Z,96617.78
2023-01-12T13:20:56.445Z,96604.41
2023-01-12T13:23:44.741Z,96598.41
2023-01-12T13:26:38.582Z,96603.66
2023-01-12T13:29:41.225Z,96597.66
2023-01-12T13:32:45.909Z,96600.22
2023-01-12T13:35:58.683Z,96599.38
2023-01-12T13:38:43.842Z,96589.03
2023-01-12T13:41:38.916Z,96595.25
2023-01-12T13:44:08.254Z,96591.78
2023-01-12T13:46:42.246Z,96590.00
2023-01-12T13:49:26.861Z,96602.31
2023-01-12T13:52:02.593Z,96605.03
2023-01-12T13:54:33.487Z,96588.41
2023-01-12T13:57:03.402Z,96605.88
2023-01-12T13:59:32.850Z,96602.41
2023-01-12T14:02:00.899Z,96610.31
2023-01-12T14:05:01.025Z,96600.63
2023-01-12T14:07:44.342Z,96604.22
2023-01-12T14:10:28.809Z,96602.50
2023-01-12T14:13:14.114Z,96601.44
2023-01-12T14:16:01.651Z,96597.16
2023-01-12T14:18:41.313Z,96587.38
2023-01-12T14:21:22.043Z,96590.09
2023-01-12T14:23:49.868Z,96585.66
2023-01-12T14:26:23.860Z,96590.00
2023-01-12T14:28:53.244Z,96587.38
2023-01-12T14:31:27.188Z,96596.19
2023-01-12T14:33:57.167Z,96590.00
2023-01-12T14:36:28.970Z,96601.44
2023-01-12T14:38:59.264Z,96587.38
2023-01-12T14:41:48.126Z,96580.41
2023-01-12T14:44:38.007Z,96596.94
2023-01-12T14:47:06.088Z,96582.00
2023-01-12T14:49:35.842Z,96582.94
2023-01-12T14:52:22.797Z,96584.72
2023-01-12T14:54:52.204Z,96582.94
2023-01-12T14:57:25.036Z,96579.47
2023-01-12T14:59:53.652Z,96579.38
2023-01-12T15:02:33.298Z,96585.56
2023-01-12T15:05:04.111Z,96590.00
2023-01-12T15:07:36.120Z,96588.28
2023-01-12T15:10:21.073Z,96584.72
2023-01-12T15:12:54.362Z,96582.19
2023-01-12T15:15:24.533Z,96584.81
2023-01-12T15:18:12.551Z,96584.94
2023-01-12T15:21:00.866Z,96585.88
2023-01-12T15:23:48.270Z,96587.78
2023-01-12T15:26:16.148Z,96585.28
2023-01-12T15:28:46.052Z,96588.00
2023-01-12T15:31:20.292Z,96588.00
2023-01-12T15:33:48.296Z,96592.53
2023-01-12T15:36:16.749Z,96594.31
2023-01-12T15:38:44.576Z,96589.06
2023-01-12T15:41:18.368Z,96597.16
2023-01-12T15:43:47.526Z,96584.09
2023-01-12T15:46:20.327Z,96586.75
2023-01-12T15:48:48.113Z,96579.91
2023-01-12T15:51:16.930Z,96588.63
2023-01-12T15:53:44.879Z,96584.31
2023-01-12T15:56:15.367Z,96579.16
2023-01-12T15:58:43.368Z,96568.63
2023-01-12T16:01:17.357Z,96571.38
2023-01-12T16:04:09.583Z,96560.22
2023-01-12T16:06:34.972Z,96569.78
2023-01-12T16:09:02.838Z,96562.94
2023-01-12T16:11:30.760Z,96556.03
2023-01-12T16:13:58.605Z,96567.69
2023-01-12T16:16:29.114Z,96568.44
2023-01-12T16:18:59.780Z,96564.31
2023-01-12T16:21:29.432Z,96566.94
2023-01-12T16:23:57.985Z,96563.56
2023-01-12T16:26:26.758Z,96571.47
2023-01-12T16:28:55.069Z,96560.22
2023-01-12T16:31:23.024Z,96562.75
2023-01-12T16:33:52.336Z,96552.31
2023-01-12T16:36:20.138Z,96560.34
2023-01-12T16:38:47.972Z,96557.69
2023-01-12T16:41:19.137Z,96564.84
2023-01-12T16:43:47.143Z,96569.28
2023-01-12T16:46:15.842Z,96572.75
2023-01-12T16:48:43.847Z,96576.19
2023-01-12T16:51:14.401Z,96567.34
2023-01-12T16:53:42.986Z,96575.16
2023-01-12T16:56:13.177Z,96574.31
2023-01-12T16:58:41.926Z,96569.06
2023-01-12T17:01:12.270Z,96572.63
2023-01-12T17:03:41.586Z,96563.81
2023-01-12T17:06:11.315Z,96562.97
2023-01-12T17:08:40.813Z,96563.69
2023-01-12T17:11:09.917Z,96569.78
2023-01-12T17:13:38.461Z,96564.63
2023-01-12T17:16:08.590Z,96563.69
2023-01-12T17:18:37.446Z,96557.56
2023-01-12T17:21:09.055Z,96551.38
2023-01-12T17:23:37.448Z,96545.16
2023-01-12T17:26:08.627Z,96561.78
2023-01-12T17:28:36.603Z,96548.63
2023-01-12T17:31:08.449Z,96545.91
2023-01-12T17:33:36.597Z,96542.44
2023-01-12T17:36:05.430Z,96544.03
2023-01-12T17:38:34.785Z,96544.84
2023-01-12T17:41:09.537Z,96543.06
2023-01-12T17:43:37.254Z,96535.16
2023-01-12T17:46:09.833Z,96528.25
2023-01-12T17:48:37.754Z,96528.03
2023-01-12T17:51:11.656Z,96519.38
2023-01-12T17:53:39.670Z,96525.50
2023-01-12T17:56:09.876Z,96517.50
2023-01-12T17:58:38.331Z,96520.03
2023-01-12T18:01:11.816Z,96532.34
2023-01-12T18:03:39.794Z,96534.84
2023-01-12T18:06:12.080Z,96517.31
2023-01-12T18:08:47.133Z,96517.31
2023-01-12T18:11:17.029Z,96512.06
2023-01-12T18:13:44.996Z,96524.25
2023-01-12T18:16:14.985Z,96514.56
2023-01-12T18:18:44.085Z,96515.38
2023-01-12T18:21:14.225Z,96519.63
2023-01-12T18:23:43.494Z,96519.50
2023-01-12T18:26:13.899Z,96517.69
2023-01-12T18:28:43.667Z,96511.59
2023-01-12T18:31:13.577Z,96516.75
2023-01-12T18:33:41.522Z,96509.72
2023-01-12T18:36:10.545Z,96501.59
2023-01-12T18:38:39.797Z,96505.09
2023-01-12T18:41:25.204Z,96503.28
2023-01-12T18:43:54.873Z,96494.56
2023-01-12T18:46:42.875Z,96510.22
2023-01-12T18:49:10.008Z,96511.94
2023-01-12T18:51:55.280Z,96502.13
2023-01-12T18:54:23.095Z,96502.13
2023-01-12T18:56:51.707Z,96496.88
2023-01-12T18:59:21.584Z,96494.94
2023-01-12T19:01:50.061Z,96485.28
2023-01-12T19:04:28.525Z,96486.13
2023-01-12T19:07:00.704Z,96483.50
2023-01-12T19:09:38.436Z,96481.69
2023-01-12T19:12:07.344Z,96485.16
2023-01-12T19:14:54.170Z,96481.59
2023-01-12T19:17:30.909Z,96483.38
2023-01-12T19:20:00.216Z,96473.69
2023-01-12T19:22:46.392Z,96485.81
2023-01-12T19:25:33.171Z,96480.41
2023-01-12T19:28:18.658Z,96477.91
2023-01-12T19:30:48.230Z,96479.69
2023-01-12T19:33:17.232Z,96480.63
2023-01-12T19:35:46.390Z,96480.63
2023-01-12T19:38:15.685Z,96483.25
2023-01-12T19:40:47.565Z,96480.63
2023-01-12T19:43:19.868Z,96470.22
2023-01-12T19:45:51.888Z,96473.69
2023-01-12T19:48:21.674Z,96476.22
2023-01-12T19:50:50.012Z,96478.00
2023-01-12T19:53:20.425Z,96476.34
2023-01-12T19:55:49.952Z,96473.69
2023-01-12T19:58:17.841Z,96484.22
2023-01-12T20:00:46.392Z,96482.34
2023-01-12T20:03:17.511Z,96483.25
2023-01-12T20:05:47.532Z,96482.34
2023-01-12T20:08:16.370Z,96481.47
2023-01-12T20:10:44.890Z,96476.34
2023-01-12T20:13:14.417Z,96470.22
2023-01-12T20:15:43.374Z,96483.25
2023-01-12T20:18:13.713Z,96470.94
2023-01-12T20:20:43.018Z,96474.53
2023-01-12T20:23:11.833Z,96475.38
2023-01-12T20:25:40.016Z,96454.56
2023-01-12T20:28:08.449Z,96449.28
2023-01-12T20:30:38.147Z,96452.03
2023-01-12T20:33:08.513Z,96440.66
2023-01-12T20:35:38.348Z,96440.75
2023-01-12T20:38:13.218Z,96437.94
2023-01-12T20:40:41.276Z,96433.59
2023-01-12T20:43:09.343Z,96430.88
2023-01-12T20:45:37.814Z,96436.38
2023-01-12T20:48:05.680Z,96429.41
2023-01-12T20:50:33.559Z,96426.78
2023-01-12T20:53:01.588Z,96421.59
2023-01-12T20:55:30.814Z,96416.47
2023-01-12T20:57:58.640Z,96424.47
2023-01-12T21:00:27.318Z,96427.09
2023-01-12T21:02:55.189Z,96419.31
2023-01-12T21:05:23.015Z,96415.00
2023-01-12T21:07:57.002Z,96410.72
2023-01-12T21:10:32.838Z,96415.09
2023-01-12T21:13:00.685Z,96414.16
2023-01-12T21:15:28.571Z,96407.34
2023-01-12T21:17:56.422Z,96398.63
2023-01-12T21:20:24.414Z,96396.69
2023-01-12T21:22:52.963Z,96400.28
2023-01-12T21:25:21.070Z,96394.19
2023-01-12T21:27:50.345Z,96392.50
2023-01-12T21:30:18.621Z,96395.13
2023-01-12T21:32:46.628Z,96385.47
2023-01-12T21:35:15.078Z,96380.22
2023-01-12T21:42:07.012Z,96386.16
2023-01-12T21:44:36.468Z,96387.03
2023-01-12T21:47:04.215Z,96385.34
2023-01-12T21:49:31.979Z,96383.66
2023-01-12T21:51:59.761Z,96383.66
2023-01-12T21:54:27.628Z,96391.44
2023-01-12T21:56:55.436Z,96388.94
2023-01-12T21:59:23.289Z,96382.72
2023-01-12T22:01:52.576Z,96390.59
2023-01-12T22:04:20.451Z,96386.16
2023-01-12T22:06:50.829Z,96381.03
2023-01-12T22:09:18.984Z,96383.44
2023-01-12T22:11:46.698Z,96375.66
2023-01-12T22:14:14.634Z,96379.16
2023-01-12T22:16:42.401Z,96381.78
2023-01-12T22:19:11.523Z,96378.19
2023-01-12T22:21:39.365Z,96378.19
2023-01-12T22:24:08.168Z,96385.09
2023-01-12T22:26:36.470Z,96381.53
2023-01-12T22:29:04.292Z,96390.38
2023-01-12T22:31:32.119Z,96392.06
2023-01-12T22:34:02.776Z,96383.22
2023-01-12T22:36:34.845Z,96383.22
2023-01-12T22:39:03.055Z,96377.94
2023-01-12T22:41:30.883Z,96375.31
2023-01-12T22:43:58.662Z,96370.06
2023-01-12T22:46:28.677Z,96371.63
2023-01-12T22:48:59.244Z,96375.94
2023-01-12T22:51:29.353Z,96371.63
2023-01-12T22:53:58.687Z,96363.53
2023-01-12T22:56:26.560Z,96348.69
2023-01-12T22:58:55.900Z,96355.63
2023-01-12T23:01:25.896Z,96357.31
2023-01-12T23:03:54.263Z,96353.50
2023-01-12T23:06:23.232Z,96357.59
2023-01-12T23:08:51.629Z,96350.53
2023-01-12T23:11:22.814Z,96355.91
2023-01-12T23:13:51.326Z,96341.91
2023-01-12T23:16:20.168Z,96347.19
2023-01-12T23:18:49.782Z,96352.44
2023-01-12T23:21:19.159Z,96345.38
2023-01-12T23:23:48.371Z,96340.94
2023-01-12T23:26:18.400Z,96330.56
2023-01-12T23:28:49.932Z,96326.13
2023-01-12T23:31:21.200Z,96321.84
2023-01-12T23:33:49.600Z,96326.97
2023-01-12T23:36:19.279Z,96328.75
2023-01-12T23:38:47.489Z,96323.50
2023-01-12T23:41:18.276Z,96327.78
2023-01-12T23:43:48.898Z,96318.13
2023-01-12T23:46:20.117Z,96326.13
2023-01-12T23:48:47.875Z,96322.53
2023-01-12T23:51:16.467Z,96317.25
2023-01-12T23:53:45.151Z,96314.63
2023-01-12T23:56:14.691Z,96318.22
2023-01-12T23:58:43.582Z,96310.34
